

Wyoming Mesonet
Water Resources Data System and State Climate Office
SEO WACNet, UW USACE UMRB, USDA-ARS, BLM
| Wind | Soil | |||||||||||||||||||
| Temp | Precip | Speed | Dir | Gust | Dir | Humidity | Pressure | Solar | Snow | Temperature (Deg F) | Moisture (%) | |||||||||
| Date Time (MST) | (F) | (in) | (mph) | (deg) | (mph) | (deg) | (%) | (Mbars) | (w/m^2) | (in) | 5cm | 10cm | 20cm | 50cm | 1m | 5cm | 10cm | 20cm | 50cm | 1m |
| 2026-08-30 00:00:00 | 70.47 | 0.00 | 16.92 | 259 | 26.71 | 257 | 46.7 | 880.0 | 0.0 | 0.1 | 76.28 | 77.54 | 78.80 | 76.28 | 73.76 | 19.8% | 22.8% | 28.1% | 35.9% | 16.5% |
| 2026-08-30 01:00:00 | 66.22 | 0.00 | 8.56 | 14 | 24.47 | 256 | 54.2 | 881.0 | 0.0 | 0.1 | 75.56 | 76.82 | 78.44 | 76.28 | 73.76 | 19.7% | 22.8% | 28.1% | 35.9% | 16.5% |
| 2026-08-30 02:00:00 | 69.08 | 0.00 | 3.26 | 338 | 19.13 | 304 | 50.6 | 881.0 | 0.0 | 0.1 | 74.84 | 76.28 | 78.08 | 76.28 | 73.76 | 19.8% | 22.8% | 28.0% | 36.0% | 16.5% |
| 2026-08-30 03:00:00 | 63.18 | 0.00 | 4.37 | 42 | 11.55 | 29 | 60.5 | 881.0 | 0.0 | 0.2 | 74.12 | 75.74 | 77.72 | 76.28 | 73.76 | 19.7% | 22.8% | 27.9% | 36.0% | 16.5% |
| 2026-08-30 04:00:00 | 63.55 | 0.00 | 2.10 | 46 | 6.58 | 269 | 63.5 | 882.0 | 0.0 | 0.1 | 73.40 | 75.20 | 77.36 | 76.46 | 73.76 | 19.6% | 22.8% | 27.9% | 36.0% | 16.5% |
| 2026-08-30 05:00:00 | 60.73 | 0.00 | 2.00 | 110 | 4.72 | 275 | 68.7 | 882.0 | 0.0 | 0.2 | 72.86 | 74.66 | 77.00 | 76.46 | 73.76 | 19.3% | 22.8% | 27.9% | 35.9% | 16.5% |
| 2026-08-30 06:00:00 | 61.39 | 0.00 | 6.22 | 7 | 7.83 | 11 | 71.7 | 882.0 | 64.4 | 0.3 | 72.32 | 74.12 | 76.64 | 76.46 | 73.76 | 19.5% | 22.8% | 27.9% | 36.0% | 16.5% |
| 2026-08-30 07:00:00 | 66.33 | 0.00 | 2.54 | 166 | 7.45 | 15 | 60.3 | 882.0 | 66.2 | 0.2 | 72.50 | 73.94 | 76.28 | 76.46 | 73.76 | 19.5% | 22.8% | 27.8% | 36.0% | 16.5% |
| 2026-08-30 08:00:00 | 72.73 | 0.00 | 0.67 | 134 | 5.84 | 118 | 45.0 | 882.0 | 462.3 | 0.1 | 73.04 | 73.94 | 75.92 | 76.28 | 73.76 | 19.5% | 22.8% | 27.8% | 35.9% | 16.5% |
| 2026-08-30 09:00:00 | 76.35 | 0.00 | 4.36 | 35 | 7.95 | 0 | 45.6 | 882.0 | 671.3 | 0.3 | 75.20 | 74.66 | 75.92 | 76.28 | 73.94 | 19.7% | 22.7% | 27.7% | 35.9% | 16.5% |
| 2026-08-30 10:00:00 | 77.11 | 0.00 | 4.00 | 79 | 7.21 | 34 | 40.2 | 882.0 | 776.6 | 0.4 | 77.54 | 76.10 | 75.92 | 76.46 | 73.76 | 19.7% | 22.8% | 27.6% | 35.9% | 16.5% |
| 2026-08-30 11:00:00 | 81.81 | 0.00 | 3.05 | 82 | 8.32 | 45 | 37.1 | 881.0 | 842.0 | 0.2 | 80.42 | 77.36 | 76.10 | 76.28 | 73.76 | 19.6% | 22.9% | 27.7% | 35.9% | 16.5% |
| 2026-08-30 12:00:00 | 84.69 | 0.00 | 5.04 | 42 | 10.06 | 42 | 33.8 | 881.0 | 920.0 | 0.3 | 83.48 | 79.16 | 76.64 | 76.28 | 73.76 | 19.7% | 23.0% | 27.6% | 35.9% | 16.5% |
| 2026-08-30 13:00:00 | 86.41 | 0.00 | 15.55 | 262 | 24.47 | 262 | 21.2 | 881.0 | 332.3 | 0.2 | 85.28 | 80.78 | 77.18 | 76.28 | 73.76 | 19.7% | 22.9% | 27.6% | 35.9% | 16.5% |
| 2026-08-30 14:00:00 | 87.48 | 0.00 | 14.59 | 245 | 28.21 | 250 | 21.4 | 881.0 | 385.6 | 0.2 | 84.74 | 81.32 | 77.90 | 76.28 | 73.76 | 19.6% | 23.0% | 27.6% | 35.9% | 16.5% |
| 2026-08-30 15:00:00 | 86.58 | 0.00 | 22.95 | 265 | 33.67 | 263 | 21.6 | 880.0 | 242.1 | 0.1 | 84.56 | 81.50 | 78.44 | 76.10 | 73.76 | 19.6% | 23.0% | 27.5% | 35.8% | 16.5% |
| 2026-08-30 16:00:00 | 74.59 | 0.00 | 27.67 | 332 | 46.46 | 328 | 45.6 | 882.0 | 275.7 | 0.3 | 83.66 | 81.50 | 78.80 | 76.10 | 73.94 | 19.5% | 22.9% | 27.5% | 35.8% | 16.5% |
| 2026-08-30 17:00:00 | 73.47 | 0.00 | 23.31 | 340 | 36.40 | 334 | 47.2 | 882.0 | 349.3 | 0.2 | 82.22 | 80.96 | 79.16 | 76.10 | 73.76 | 19.4% | 22.8% | 27.6% | 35.8% | 16.5% |
| 2026-08-30 18:00:00 | 71.47 | 0.00 | 9.61 | 316 | 28.57 | 338 | 47.3 | 882.0 | 87.7 | 0.2 | 80.78 | 80.24 | 79.34 | 76.10 | 73.76 | 19.4% | 22.9% | 27.5% | 35.8% | 16.5% |
| 2026-08-30 19:00:00 | 67.26 | 0.00 | 5.84 | 282 | 10.56 | 308 | 51.6 | 883.0 | 0.0 | 0.1 | 78.98 | 79.34 | 79.16 | 76.10 | 73.76 | 19.3% | 22.8% | 27.5% | 35.8% | 16.5% |
| 2026-08-30 20:00:00 | 63.50 | 0.00 | 7.65 | 316 | 11.43 | 287 | 57.2 | 883.0 | 0.0 | 0.1 | 77.36 | 78.44 | 78.98 | 76.10 | 73.76 | 19.2% | 22.8% | 27.4% | 35.8% | 16.5% |
| 2026-08-30 21:00:00 | 59.32 | 0.00 | 2.17 | 296 | 8.08 | 308 | 66.8 | 884.0 | 0.0 | 0.0 | 75.92 | 77.54 | 78.80 | 76.10 | 73.94 | 19.2% | 22.8% | 27.4% | 35.8% | 16.5% |
| 2026-08-30 22:00:00 | 57.67 | 0.00 | 2.33 | 332 | 6.46 | 319 | 69.4 | 884.0 | 0.0 | 0.1 | 74.84 | 76.64 | 78.44 | 76.10 | 73.76 | 19.2% | 22.8% | 27.3% | 35.8% | 16.5% |
| 2026-08-30 23:00:00 | 57.79 | 0.00 | 3.47 | 194 | 15.28 | 135 | 68.8 | 885.0 | 0.0 | 0.2 | 73.76 | 75.92 | 77.90 | 76.10 | 73.94 | 18.9% | 22.8% | 27.3% | 35.8% | 16.5% |